sensor_id;sensor_type;location;lat;lon;timestamp;P1;durP1;ratioP1;P2;durP2;ratioP2
22983;SDS011;11658;48.908;9.140;2023-12-04T05:00:32;7.67;;;6.30;;
22983;SDS011;11658;48.908;9.140;2023-12-04T05:03:00;10.80;;;8.77;;
22983;SDS011;11658;48.908;9.140;2023-12-04T05:05:29;9.30;;;7.37;;
22983;SDS011;11658;48.908;9.140;2023-12-04T05:07:54;11.60;;;8.20;;
22983;SDS011;11658;48.908;9.140;2023-12-04T05:10:26;11.87;;;8.37;;
22983;SDS011;11658;48.908;9.140;2023-12-04T05:12:52;10.23;;;8.07;;
22983;SDS011;11658;48.908;9.140;2023-12-04T05:15:21;9.57;;;7.63;;
22983;SDS011;11658;48.908;9.140;2023-12-04T05:17:54;10.87;;;8.17;;
22983;SDS011;11658;48.908;9.140;2023-12-04T05:20:25;9.20;;;6.77;;
22983;SDS011;11658;48.908;9.140;2023-12-04T05:22:55;10.50;;;7.47;;
22983;SDS011;11658;48.908;9.140;2023-12-04T05:25:22;12.17;;;8.47;;
22983;SDS011;11658;48.908;9.140;2023-12-04T05:27:50;10.13;;;7.57;;
22983;SDS011;11658;48.908;9.140;2023-12-04T05:30:16;9.10;;;7.17;;
22983;SDS011;11658;48.908;9.140;2023-12-04T05:32:42;9.30;;;7.00;;
22983;SDS011;11658;48.908;9.140;2023-12-04T05:35:15;9.10;;;7.17;;
22983;SDS011;11658;48.908;9.140;2023-12-04T05:37:50;8.03;;;6.97;;
22983;SDS011;11658;48.908;9.140;2023-12-04T05:40:24;10.17;;;7.23;;
22983;SDS011;11658;48.908;9.140;2023-12-04T05:42:53;10.10;;;7.43;;
22983;SDS011;11658;48.908;9.140;2023-12-04T05:45:18;9.67;;;7.33;;
22983;SDS011;11658;48.908;9.140;2023-12-04T05:47:44;10.03;;;7.33;;
22983;SDS011;11658;48.908;9.140;2023-12-04T05:50:20;10.10;;;7.33;;
22983;SDS011;11658;48.908;9.140;2023-12-04T05:52:50;8.70;;;6.93;;
22983;SDS011;11658;48.908;9.140;2023-12-04T05:55:25;10.17;;;7.53;;
22983;SDS011;11658;48.908;9.140;2023-12-04T05:58:12;8.73;;;6.70;;
22983;SDS011;11658;48.908;9.140;2023-12-04T06:00:40;9.80;;;8.10;;
22983;SDS011;11658;48.908;9.140;2023-12-04T06:03:15;10.10;;;7.77;;
22983;SDS011;11658;48.908;9.140;2023-12-04T06:05:43;15.60;;;10.03;;
22983;SDS011;11658;48.908;9.140;2023-12-04T06:08:09;12.57;;;8.03;;
22983;SDS011;11658;48.908;9.140;2023-12-04T06:10:38;9.43;;;7.20;;
22983;SDS011;11658;48.908;9.140;2023-12-04T06:13:09;9.97;;;7.50;;
22983;SDS011;11658;48.908;9.140;2023-12-04T06:15:43;10.67;;;7.77;;
22983;SDS011;11658;48.908;9.140;2023-12-04T06:18:10;7.80;;;6.43;;
22983;SDS011;11658;48.908;9.140;2023-12-04T06:21:11;9.00;;;6.70;;
22983;SDS011;11658;48.908;9.140;2023-12-04T06:23:40;7.47;;;6.13;;
22983;SDS011;11658;48.908;9.140;2023-12-04T06:26:11;9.57;;;6.97;;
22983;SDS011;11658;48.908;9.140;2023-12-04T06:28:52;8.47;;;6.57;;
22983;SDS011;11658;48.908;9.140;2023-12-04T06:31:21;7.77;;;6.40;;
22983;SDS011;11658;48.908;9.140;2023-12-04T06:33:50;8.93;;;6.50;;
22983;SDS011;11658;48.908;9.140;2023-12-04T06:36:18;8.70;;;6.00;;
22983;SDS011;11658;48.908;9.140;2023-12-04T06:38:58;8.17;;;6.30;;
22983;SDS011;11658;48.908;9.140;2023-12-04T06:41:29;9.47;;;6.57;;
22983;SDS011;11658;48.908;9.140;2023-12-04T06:44:04;8.23;;;6.73;;
22983;SDS011;11658;48.908;9.140;2023-12-04T06:46:37;8.00;;;6.50;;
22983;SDS011;11658;48.908;9.140;2023-12-04T06:49:06;8.43;;;6.47;;
22983;SDS011;11658;48.908;9.140;2023-12-04T06:51:36;7.70;;;6.20;;
22983;SDS011;11658;48.908;9.140;2023-12-04T06:54:02;7.57;;;5.80;;
22983;SDS011;11658;48.908;9.140;2023-12-04T06:56:32;8.47;;;6.57;;
22983;SDS011;11658;48.908;9.140;2023-12-04T06:59:04;8.83;;;6.53;;
22983;SDS011;11658;48.908;9.140;2023-12-04T07:01:33;10.50;;;6.93;;
22983;SDS011;11658;48.908;9.140;2023-12-04T07:03:59;8.20;;;6.03;;
22983;SDS011;11658;48.908;9.140;2023-12-04T07:06:24;7.93;;;5.90;;
22983;SDS011;11658;48.908;9.140;2023-12-04T07:08:52;9.67;;;6.93;;
22983;SDS011;11658;48.908;9.140;2023-12-04T07:11:18;16.80;;;10.30;;
22983;SDS011;11658;48.908;9.140;2023-12-04T07:13:43;8.90;;;7.40;;
22983;SDS011;11658;48.908;9.140;2023-12-04T07:16:10;8.50;;;6.80;;
22983;SDS011;11658;48.908;9.140;2023-12-04T07:18:35;8.73;;;6.30;;
22983;SDS011;11658;48.908;9.140;2023-12-04T07:21:01;8.43;;;6.63;;
22983;SDS011;11658;48.908;9.140;2023-12-04T07:23:28;9.17;;;7.10;;
22983;SDS011;11658;48.908;9.140;2023-12-04T07:25:59;9.80;;;6.77;;
22983;SDS011;11658;48.908;9.140;2023-12-04T07:28:25;8.70;;;7.10;;
22983;SDS011;11658;48.908;9.140;2023-12-04T07:30:50;8.17;;;6.90;;
22983;SDS011;11658;48.908;9.140;2023-12-04T07:33:16;7.53;;;6.10;;
22983;SDS011;11658;48.908;9.140;2023-12-04T07:35:42;10.93;;;6.93;;
22983;SDS011;11658;48.908;9.140;2023-12-04T07:38:11;7.37;;;5.97;;
22983;SDS011;11658;48.908;9.140;2023-12-04T07:40:43;7.97;;;6.33;;
22983;SDS011;11658;48.908;9.140;2023-12-04T07:43:10;7.13;;;5.77;;
22983;SDS011;11658;48.908;9.140;2023-12-04T07:45:38;7.93;;;6.40;;
22983;SDS011;11658;48.908;9.140;2023-12-04T07:48:04;7.50;;;5.97;;
22983;SDS011;11658;48.908;9.140;2023-12-04T07:50:30;7.70;;;5.93;;
22983;SDS011;11658;48.908;9.140;2023-12-04T07:52:56;7.63;;;6.20;;
22983;SDS011;11658;48.908;9.140;2023-12-04T07:55:21;6.73;;;5.63;;
22983;SDS011;11658;48.908;9.140;2023-12-04T07:57:47;8.03;;;5.90;;
22983;SDS011;11658;48.908;9.140;2023-12-04T08:00:13;7.03;;;5.63;;
22983;SDS011;11658;48.908;9.140;2023-12-04T08:02:39;7.27;;;5.43;;
22983;SDS011;11658;48.908;9.140;2023-12-04T08:05:09;6.27;;;4.83;;
22983;SDS011;11658;48.908;9.140;2023-12-04T08:07:35;6.00;;;5.00;;
22983;SDS011;11658;48.908;9.140;2023-12-04T08:10:01;6.50;;;5.70;;
22983;SDS011;11658;48.908;9.140;2023-12-04T08:12:27;6.97;;;5.27;;
22983;SDS011;11658;48.908;9.140;2023-12-04T08:14:52;6.87;;;5.60;;
22983;SDS011;11658;48.908;9.140;2023-12-04T08:17:21;6.37;;;5.10;;
22983;SDS011;11658;48.908;9.140;2023-12-04T08:19:46;6.83;;;5.03;;
22983;SDS011;11658;48.908;9.140;2023-12-04T08:22:12;6.30;;;5.00;;
22983;SDS011;11658;48.908;9.140;2023-12-04T08:24:38;7.43;;;5.90;;
22983;SDS011;11658;48.908;9.140;2023-12-04T08:27:03;8.33;;;5.60;;
22983;SDS011;11658;48.908;9.140;2023-12-04T08:29:29;7.10;;;5.63;;
22983;SDS011;11658;48.908;9.140;2023-12-04T08:31:55;7.00;;;5.13;;
22983;SDS011;11658;48.908;9.140;2023-12-04T08:34:20;11.87;;;6.00;;
22983;SDS011;11658;48.908;9.140;2023-12-04T08:36:46;7.30;;;5.27;;
22983;SDS011;11658;48.908;9.140;2023-12-04T08:39:12;7.37;;;5.50;;
22983;SDS011;11658;48.908;9.140;2023-12-04T08:41:38;10.13;;;7.47;;
22983;SDS011;11658;48.908;9.140;2023-12-04T08:44:03;6.73;;;5.80;;
22983;SDS011;11658;48.908;9.140;2023-12-04T08:46:29;6.63;;;5.50;;
22983;SDS011;11658;48.908;9.140;2023-12-04T08:48:55;8.67;;;6.30;;
22983;SDS011;11658;48.908;9.140;2023-12-04T08:51:20;9.00;;;6.13;;
22983;SDS011;11658;48.908;9.140;2023-12-04T08:53:46;8.30;;;6.40;;
22983;SDS011;11658;48.908;9.140;2023-12-04T08:56:11;7.93;;;6.30;;
22983;SDS011;11658;48.908;9.140;2023-12-04T08:58:40;8.80;;;7.07;;
22983;SDS011;11658;48.908;9.140;2023-12-04T09:01:06;8.90;;;7.20;;
22983;SDS011;11658;48.908;9.140;2023-12-04T09:03:32;8.00;;;6.80;;
22983;SDS011;11658;48.908;9.140;2023-12-04T09:05:57;8.50;;;6.87;;
22983;SDS011;11658;48.908;9.140;2023-12-04T09:08:23;10.63;;;6.30;;
22983;SDS011;11658;48.908;9.140;2023-12-04T09:10:51;9.53;;;7.50;;
22983;SDS011;11658;48.908;9.140;2023-12-04T09:13:17;9.77;;;6.57;;
22983;SDS011;11658;48.908;9.140;2023-12-04T09:15:42;9.03;;;6.70;;
22983;SDS011;11658;48.908;9.140;2023-12-04T09:18:08;9.00;;;6.57;;
22983;SDS011;11658;48.908;9.140;2023-12-04T09:20:34;12.03;;;7.13;;
22983;SDS011;11658;48.908;9.140;2023-12-04T09:22:59;8.93;;;6.73;;
22983;SDS011;11658;48.908;9.140;2023-12-04T09:25:25;8.73;;;6.50;;
22983;SDS011;11658;48.908;9.140;2023-12-04T09:27:51;8.57;;;6.23;;
22983;SDS011;11658;48.908;9.140;2023-12-04T09:30:16;8.90;;;6.60;;
22983;SDS011;11658;48.908;9.140;2023-12-04T09:32:43;8.40;;;6.67;;
22983;SDS011;11658;48.908;9.140;2023-12-04T09:35:08;9.00;;;6.30;;
22983;SDS011;11658;48.908;9.140;2023-12-04T09:37:34;8.43;;;6.73;;
22983;SDS011;11658;48.908;9.140;2023-12-04T09:40:00;9.20;;;7.10;;
22983;SDS011;11658;48.908;9.140;2023-12-04T09:42:26;9.17;;;6.90;;
22983;SDS011;11658;48.908;9.140;2023-12-04T09:44:52;10.10;;;6.37;;
22983;SDS011;11658;48.908;9.140;2023-12-04T09:47:19;7.93;;;6.33;;
22983;SDS011;11658;48.908;9.140;2023-12-04T09:49:46;10.63;;;7.33;;
22983;SDS011;11658;48.908;9.140;2023-12-04T09:52:13;12.37;;;7.27;;
22983;SDS011;11658;48.908;9.140;2023-12-04T09:54:39;9.63;;;6.70;;
22983;SDS011;11658;48.908;9.140;2023-12-04T09:57:06;9.23;;;6.73;;
22983;SDS011;11658;48.908;9.140;2023-12-04T09:59:32;8.53;;;6.80;;
22983;SDS011;11658;48.908;9.140;2023-12-04T10:01:59;10.53;;;7.20;;
22983;SDS011;11658;48.908;9.140;2023-12-04T10:04:25;10.33;;;7.13;;
22983;SDS011;11658;48.908;9.140;2023-12-04T10:06:51;9.33;;;6.40;;
22983;SDS011;11658;48.908;9.140;2023-12-04T10:09:18;8.20;;;6.40;;
22983;SDS011;11658;48.908;9.140;2023-12-04T10:11:47;7.73;;;6.30;;
22983;SDS011;11658;48.908;9.140;2023-12-04T10:14:16;8.00;;;7.00;;
22983;SDS011;11658;48.908;9.140;2023-12-04T10:16:43;7.97;;;6.67;;
22983;SDS011;11658;48.908;9.140;2023-12-04T10:21:50;8.60;;;6.10;;
22983;SDS011;11658;48.908;9.140;2023-12-04T10:24:35;9.10;;;7.13;;
22983;SDS011;11658;48.908;9.140;2023-12-04T10:27:02;9.43;;;6.93;;
22983;SDS011;11658;48.908;9.140;2023-12-04T10:29:46;12.27;;;7.30;;
22983;SDS011;11658;48.908;9.140;2023-12-04T10:32:16;10.07;;;7.77;;
22983;SDS011;11658;48.908;9.140;2023-12-04T10:34:47;7.43;;;6.03;;
22983;SDS011;11658;48.908;9.140;2023-12-04T10:37:13;9.10;;;7.20;;
22983;SDS011;11658;48.908;9.140;2023-12-04T10:39:45;8.00;;;5.83;;
22983;SDS011;11658;48.908;9.140;2023-12-04T10:42:12;8.17;;;6.50;;
22983;SDS011;11658;48.908;9.140;2023-12-04T10:44:57;9.10;;;6.30;;
22983;SDS011;11658;48.908;9.140;2023-12-04T10:47:24;10.97;;;6.90;;
22983;SDS011;11658;48.908;9.140;2023-12-04T10:49:51;8.47;;;6.53;;
22983;SDS011;11658;48.908;9.140;2023-12-04T10:52:20;8.87;;;6.57;;
22983;SDS011;11658;48.908;9.140;2023-12-04T10:54:49;10.60;;;6.80;;
22983;SDS011;11658;48.908;9.140;2023-12-04T10:57:27;8.07;;;6.60;;
22983;SDS011;11658;48.908;9.140;2023-12-04T11:00:02;8.80;;;6.80;;
22983;SDS011;11658;48.908;9.140;2023-12-04T11:02:31;8.83;;;6.57;;
22983;SDS011;11658;48.908;9.140;2023-12-04T11:05:04;8.97;;;6.27;;
22983;SDS011;11658;48.908;9.140;2023-12-04T11:07:38;9.73;;;6.37;;
22983;SDS011;11658;48.908;9.140;2023-12-04T11:10:09;12.03;;;7.23;;
22983;SDS011;11658;48.908;9.140;2023-12-04T11:12:37;8.57;;;6.40;;
22983;SDS011;11658;48.908;9.140;2023-12-04T11:15:09;10.53;;;6.97;;
22983;SDS011;11658;48.908;9.140;2023-12-04T11:17:39;9.00;;;6.20;;
22983;SDS011;11658;48.908;9.140;2023-12-04T11:20:13;8.47;;;6.23;;
22983;SDS011;11658;48.908;9.140;2023-12-04T11:22:46;11.83;;;7.00;;
22983;SDS011;11658;48.908;9.140;2023-12-04T11:25:13;10.77;;;8.17;;
22983;SDS011;11658;48.908;9.140;2023-12-04T11:27:39;13.70;;;8.10;;
22983;SDS011;11658;48.908;9.140;2023-12-04T11:30:06;9.07;;;7.27;;
22983;SDS011;11658;48.908;9.140;2023-12-04T11:32:37;9.77;;;7.33;;
22983;SDS011;11658;48.908;9.140;2023-12-04T11:35:16;10.77;;;7.37;;
22983;SDS011;11658;48.908;9.140;2023-12-04T11:37:43;7.33;;;6.23;;
22983;SDS011;11658;48.908;9.140;2023-12-04T11:40:14;12.13;;;7.97;;
22983;SDS011;11658;48.908;9.140;2023-12-04T11:42:41;7.90;;;6.70;;
22983;SDS011;11658;48.908;9.140;2023-12-04T11:45:07;8.03;;;6.33;;
22983;SDS011;11658;48.908;9.140;2023-12-04T11:50:22;7.83;;;6.23;;
22983;SDS011;11658;48.908;9.140;2023-12-04T11:52:50;8.10;;;6.47;;
22983;SDS011;11658;48.908;9.140;2023-12-04T11:55:22;11.57;;;7.67;;
22983;SDS011;11658;48.908;9.140;2023-12-04T11:57:51;8.67;;;6.53;;
22983;SDS011;11658;48.908;9.140;2023-12-04T12:05:19;7.20;;;6.23;;
22983;SDS011;11658;48.908;9.140;2023-12-04T12:07:46;8.50;;;6.40;;
22983;SDS011;11658;48.908;9.140;2023-12-04T12:10:12;8.40;;;6.00;;
22983;SDS011;11658;48.908;9.140;2023-12-04T12:12:39;9.03;;;6.40;;
22983;SDS011;11658;48.908;9.140;2023-12-04T12:15:09;7.63;;;6.30;;
22983;SDS011;11658;48.908;9.140;2023-12-04T12:17:35;9.37;;;6.10;;
22983;SDS011;11658;48.908;9.140;2023-12-04T12:20:06;10.67;;;6.70;;
22983;SDS011;11658;48.908;9.140;2023-12-04T12:22:32;9.77;;;7.03;;
22983;SDS011;11658;48.908;9.140;2023-12-04T12:24:59;7.73;;;6.03;;
22983;SDS011;11658;48.908;9.140;2023-12-04T12:27:25;9.07;;;7.00;;
22983;SDS011;11658;48.908;9.140;2023-12-04T12:29:51;7.90;;;6.13;;
22983;SDS011;11658;48.908;9.140;2023-12-04T12:32:16;11.73;;;7.20;;
22983;SDS011;11658;48.908;9.140;2023-12-04T12:34:42;8.80;;;7.13;;
22983;SDS011;11658;48.908;9.140;2023-12-04T12:37:08;11.53;;;8.50;;
22983;SDS011;11658;48.908;9.140;2023-12-04T12:39:34;9.43;;;7.47;;
22983;SDS011;11658;48.908;9.140;2023-12-04T12:42:00;8.43;;;6.93;;
22983;SDS011;11658;48.908;9.140;2023-12-04T12:44:27;9.87;;;7.97;;
22983;SDS011;11658;48.908;9.140;2023-12-04T12:46:53;8.33;;;6.67;;
22983;SDS011;11658;48.908;9.140;2023-12-04T12:49:19;7.00;;;6.30;;
22983;SDS011;11658;48.908;9.140;2023-12-04T12:51:47;8.13;;;6.10;;
22983;SDS011;11658;48.908;9.140;2023-12-04T12:54:13;8.80;;;6.07;;
22983;SDS011;11658;48.908;9.140;2023-12-04T12:56:40;8.00;;;6.57;;
22983;SDS011;11658;48.908;9.140;2023-12-04T12:59:06;9.30;;;6.90;;
22983;SDS011;11658;48.908;9.140;2023-12-04T13:01:32;8.40;;;6.20;;
22983;SDS011;11658;48.908;9.140;2023-12-04T13:03:58;8.47;;;6.37;;
22983;SDS011;11658;48.908;9.140;2023-12-04T13:06:28;7.23;;;5.93;;
22983;SDS011;11658;48.908;9.140;2023-12-04T13:08:54;7.20;;;6.20;;
22983;SDS011;11658;48.908;9.140;2023-12-04T13:11:20;8.13;;;5.97;;
22983;SDS011;11658;48.908;9.140;2023-12-04T13:13:46;8.97;;;6.80;;
22983;SDS011;11658;48.908;9.140;2023-12-04T13:16:11;10.80;;;7.37;;
22983;SDS011;11658;48.908;9.140;2023-12-04T13:18:37;7.17;;;6.07;;
22983;SDS011;11658;48.908;9.140;2023-12-04T13:21:03;7.83;;;6.73;;
22983;SDS011;11658;48.908;9.140;2023-12-04T13:23:29;8.07;;;6.43;;
22983;SDS011;11658;48.908;9.140;2023-12-04T13:25:55;8.07;;;7.03;;
22983;SDS011;11658;48.908;9.140;2023-12-04T13:28:21;9.37;;;6.70;;
22983;SDS011;11658;48.908;9.140;2023-12-04T13:30:46;10.20;;;6.67;;
22983;SDS011;11658;48.908;9.140;2023-12-04T13:33:13;9.60;;;7.17;;
22983;SDS011;11658;48.908;9.140;2023-12-04T13:35:38;8.67;;;7.00;;
22983;SDS011;11658;48.908;9.140;2023-12-04T13:38:04;8.87;;;7.07;;
22983;SDS011;11658;48.908;9.140;2023-12-04T13:40:37;8.57;;;6.80;;
22983;SDS011;11658;48.908;9.140;2023-12-04T13:43:04;10.23;;;7.37;;
22983;SDS011;11658;48.908;9.140;2023-12-04T13:45:49;9.80;;;7.70;;
22983;SDS011;11658;48.908;9.140;2023-12-04T13:48:16;9.60;;;7.63;;
22983;SDS011;11658;48.908;9.140;2023-12-04T13:50:43;8.47;;;7.03;;
22983;SDS011;11658;48.908;9.140;2023-12-04T13:53:08;11.10;;;7.53;;
22983;SDS011;11658;48.908;9.140;2023-12-04T13:55:34;11.17;;;8.07;;
22983;SDS011;11658;48.908;9.140;2023-12-04T13:58:28;10.27;;;7.90;;
22983;SDS011;11658;48.908;9.140;2023-12-04T14:01:05;9.83;;;7.67;;
22983;SDS011;11658;48.908;9.140;2023-12-04T14:03:47;9.47;;;7.03;;
22983;SDS011;11658;48.908;9.140;2023-12-04T14:06:12;9.37;;;7.13;;
22983;SDS011;11658;48.908;9.140;2023-12-04T14:08:39;10.40;;;7.27;;
22983;SDS011;11658;48.908;9.140;2023-12-04T14:11:07;9.83;;;7.97;;
22983;SDS011;11658;48.908;9.140;2023-12-04T14:13:34;10.53;;;8.60;;
22983;SDS011;11658;48.908;9.140;2023-12-04T14:16:00;9.53;;;7.67;;
22983;SDS011;11658;48.908;9.140;2023-12-04T14:18:29;8.73;;;7.80;;
22983;SDS011;11658;48.908;9.140;2023-12-04T14:20:57;10.07;;;8.00;;
22983;SDS011;11658;48.908;9.140;2023-12-04T14:23:23;10.97;;;8.53;;
22983;SDS011;11658;48.908;9.140;2023-12-04T14:25:49;9.70;;;8.10;;
22983;SDS011;11658;48.908;9.140;2023-12-04T14:28:15;9.10;;;7.87;;
22983;SDS011;11658;48.908;9.140;2023-12-04T14:30:44;12.40;;;8.70;;
22983;SDS011;11658;48.908;9.140;2023-12-04T14:33:10;10.53;;;9.17;;
22983;SDS011;11658;48.908;9.140;2023-12-04T14:35:36;10.77;;;8.77;;
22983;SDS011;11658;48.908;9.140;2023-12-04T14:38:02;11.30;;;9.00;;
22983;SDS011;11658;48.908;9.140;2023-12-04T14:40:29;10.90;;;8.37;;
22983;SDS011;11658;48.908;9.140;2023-12-04T14:42:55;10.03;;;8.40;;
22983;SDS011;11658;48.908;9.140;2023-12-04T14:45:21;9.43;;;8.43;;
22983;SDS011;11658;48.908;9.140;2023-12-04T14:47:47;12.13;;;8.50;;
22983;SDS011;11658;48.908;9.140;2023-12-04T14:50:13;9.23;;;7.77;;
22983;SDS011;11658;48.908;9.140;2023-12-04T14:52:42;12.00;;;8.63;;
22983;SDS011;11658;48.908;9.140;2023-12-04T14:55:15;11.53;;;9.50;;
22983;SDS011;11658;48.908;9.140;2023-12-04T14:57:52;11.23;;;9.17;;
22983;SDS011;11658;48.908;9.140;2023-12-04T15:00:37;11.30;;;9.10;;
22983;SDS011;11658;48.908;9.140;2023-12-04T15:03:21;10.27;;;8.73;;
22983;SDS011;11658;48.908;9.140;2023-12-04T15:06:16;12.57;;;9.43;;
22983;SDS011;11658;48.908;9.140;2023-12-04T15:08:41;13.10;;;9.40;;
22983;SDS011;11658;48.908;9.140;2023-12-04T15:11:10;12.27;;;9.57;;
22983;SDS011;11658;48.908;9.140;2023-12-04T15:13:55;12.80;;;9.27;;
22983;SDS011;11658;48.908;9.140;2023-12-04T15:16:44;11.70;;;8.47;;
22983;SDS011;11658;48.908;9.140;2023-12-04T15:19:18;12.10;;;9.10;;
22983;SDS011;11658;48.908;9.140;2023-12-04T15:21:52;12.00;;;9.03;;
22983;SDS011;11658;48.908;9.140;2023-12-04T15:24:18;12.27;;;9.33;;
22983;SDS011;11658;48.908;9.140;2023-12-04T15:26:47;13.23;;;10.10;;
22983;SDS011;11658;48.908;9.140;2023-12-04T15:29:12;11.60;;;9.27;;
22983;SDS011;11658;48.908;9.140;2023-12-04T15:31:39;12.17;;;9.30;;
22983;SDS011;11658;48.908;9.140;2023-12-04T15:34:05;12.97;;;9.37;;
22983;SDS011;11658;48.908;9.140;2023-12-04T15:36:30;12.53;;;9.53;;
22983;SDS011;11658;48.908;9.140;2023-12-04T15:38:57;13.87;;;9.63;;
22983;SDS011;11658;48.908;9.140;2023-12-04T15:41:24;14.53;;;10.03;;
22983;SDS011;11658;48.908;9.140;2023-12-04T15:43:55;15.17;;;11.20;;
22983;SDS011;11658;48.908;9.140;2023-12-04T15:46:24;14.33;;;10.83;;
22983;SDS011;11658;48.908;9.140;2023-12-04T15:48:55;13.83;;;10.10;;
22983;SDS011;11658;48.908;9.140;2023-12-04T15:51:24;13.57;;;10.20;;
22983;SDS011;11658;48.908;9.140;2023-12-04T15:53:57;12.30;;;9.20;;
22983;SDS011;11658;48.908;9.140;2023-12-04T15:56:23;12.63;;;9.30;;
22983;SDS011;11658;48.908;9.140;2023-12-04T15:58:48;12.23;;;9.33;;
22983;SDS011;11658;48.908;9.140;2023-12-04T16:01:14;13.43;;;9.87;;
22983;SDS011;11658;48.908;9.140;2023-12-04T16:03:43;13.13;;;10.07;;
22983;SDS011;11658;48.908;9.140;2023-12-04T16:06:09;16.10;;;10.40;;
22983;SDS011;11658;48.908;9.140;2023-12-04T16:08:36;12.53;;;9.87;;
22983;SDS011;11658;48.908;9.140;2023-12-04T16:11:02;12.83;;;10.20;;
22983;SDS011;11658;48.908;9.140;2023-12-04T16:13:28;15.73;;;10.67;;
22983;SDS011;11658;48.908;9.140;2023-12-04T16:15:53;14.27;;;10.47;;
22983;SDS011;11658;48.908;9.140;2023-12-04T16:18:19;13.37;;;10.00;;
22983;SDS011;11658;48.908;9.140;2023-12-04T16:20:45;16.73;;;11.27;;
22983;SDS011;11658;48.908;9.140;2023-12-04T16:23:12;13.27;;;10.03;;
22983;SDS011;11658;48.908;9.140;2023-12-04T16:25:39;11.87;;;9.17;;
22983;SDS011;11658;48.908;9.140;2023-12-04T16:28:05;14.80;;;11.47;;
22983;SDS011;11658;48.908;9.140;2023-12-04T16:30:35;14.93;;;10.53;;
22983;SDS011;11658;48.908;9.140;2023-12-04T16:33:07;13.13;;;10.37;;
22983;SDS011;11658;48.908;9.140;2023-12-04T16:35:33;17.00;;;11.13;;
22983;SDS011;11658;48.908;9.140;2023-12-04T16:37:59;13.67;;;10.37;;
22983;SDS011;11658;48.908;9.140;2023-12-04T16:40:27;16.80;;;11.10;;
22983;SDS011;11658;48.908;9.140;2023-12-04T16:42:53;15.73;;;11.77;;
22983;SDS011;11658;48.908;9.140;2023-12-04T16:45:19;18.50;;;12.07;;
22983;SDS011;11658;48.908;9.140;2023-12-04T16:47:45;19.57;;;11.93;;
22983;SDS011;11658;48.908;9.140;2023-12-04T16:50:14;18.00;;;11.47;;
22983;SDS011;11658;48.908;9.140;2023-12-04T16:52:48;15.00;;;10.97;;
22983;SDS011;11658;48.908;9.140;2023-12-04T16:55:14;16.43;;;11.60;;
22983;SDS011;11658;48.908;9.140;2023-12-04T16:57:40;13.93;;;11.00;;
22983;SDS011;11658;48.908;9.140;2023-12-04T17:00:09;15.00;;;10.77;;
22983;SDS011;11658;48.908;9.140;2023-12-04T17:02:43;14.37;;;10.00;;
22983;SDS011;11658;48.908;9.140;2023-12-04T17:05:09;16.37;;;11.30;;
22983;SDS011;11658;48.908;9.140;2023-12-04T17:07:40;15.90;;;12.10;;
22983;SDS011;11658;48.908;9.140;2023-12-04T17:10:11;14.43;;;10.77;;
22983;SDS011;11658;48.908;9.140;2023-12-04T17:12:37;14.27;;;10.23;;
22983;SDS011;11658;48.908;9.140;2023-12-04T17:15:11;16.87;;;10.83;;
22983;SDS011;11658;48.908;9.140;2023-12-04T17:17:41;15.20;;;12.37;;
22983;SDS011;11658;48.908;9.140;2023-12-04T17:20:10;16.17;;;12.00;;
22983;SDS011;11658;48.908;9.140;2023-12-04T17:22:36;14.97;;;11.20;;
22983;SDS011;11658;48.908;9.140;2023-12-04T17:25:02;15.03;;;11.27;;
22983;SDS011;11658;48.908;9.140;2023-12-04T17:27:29;18.53;;;12.33;;
22983;SDS011;11658;48.908;9.140;2023-12-04T17:29:55;16.47;;;12.03;;
22983;SDS011;11658;48.908;9.140;2023-12-04T17:32:24;16.33;;;11.47;;
22983;SDS011;11658;48.908;9.140;2023-12-04T17:34:55;16.97;;;11.20;;
22983;SDS011;11658;48.908;9.140;2023-12-04T17:37:21;17.00;;;12.07;;
22983;SDS011;11658;48.908;9.140;2023-12-04T17:39:47;16.07;;;12.63;;
22983;SDS011;11658;48.908;9.140;2023-12-04T17:42:22;17.00;;;11.77;;
22983;SDS011;11658;48.908;9.140;2023-12-04T17:44:48;18.27;;;12.80;;
22983;SDS011;11658;48.908;9.140;2023-12-04T17:47:14;15.57;;;12.07;;
22983;SDS011;11658;48.908;9.140;2023-12-04T17:49:40;17.00;;;11.20;;
22983;SDS011;11658;48.908;9.140;2023-12-04T17:52:06;16.87;;;11.67;;
22983;SDS011;11658;48.908;9.140;2023-12-04T17:54:31;17.60;;;11.37;;
22983;SDS011;11658;48.908;9.140;2023-12-04T17:57:07;15.53;;;11.17;;
22983;SDS011;11658;48.908;9.140;2023-12-04T17:59:32;15.90;;;11.53;;
22983;SDS011;11658;48.908;9.140;2023-12-04T18:01:58;15.13;;;11.87;;
22983;SDS011;11658;48.908;9.140;2023-12-04T18:04:24;14.80;;;10.60;;
22983;SDS011;11658;48.908;9.140;2023-12-04T18:06:50;15.53;;;10.53;;
22983;SDS011;11658;48.908;9.140;2023-12-04T18:09:16;13.20;;;10.03;;
22983;SDS011;11658;48.908;9.140;2023-12-04T18:11:42;15.80;;;11.00;;
22983;SDS011;11658;48.908;9.140;2023-12-04T18:14:07;13.83;;;9.27;;
22983;SDS011;11658;48.908;9.140;2023-12-04T18:16:33;14.60;;;10.60;;
22983;SDS011;11658;48.908;9.140;2023-12-04T18:18:59;15.37;;;11.03;;
22983;SDS011;11658;48.908;9.140;2023-12-04T18:21:24;17.90;;;12.23;;
22983;SDS011;11658;48.908;9.140;2023-12-04T18:23:53;17.83;;;13.23;;
22983;SDS011;11658;48.908;9.140;2023-12-04T18:26:19;18.73;;;13.43;;
22983;SDS011;11658;48.908;9.140;2023-12-04T18:28:45;18.37;;;12.97;;
22983;SDS011;11658;48.908;9.140;2023-12-04T18:31:16;17.97;;;13.13;;
22983;SDS011;11658;48.908;9.140;2023-12-04T18:33:43;17.43;;;12.60;;
22983;SDS011;11658;48.908;9.140;2023-12-04T18:36:09;18.07;;;12.43;;
22983;SDS011;11658;48.908;9.140;2023-12-04T18:38:52;14.80;;;12.13;;
22983;SDS011;11658;48.908;9.140;2023-12-04T18:41:22;16.57;;;11.70;;
22983;SDS011;11658;48.908;9.140;2023-12-04T18:43:53;14.80;;;10.53;;
22983;SDS011;11658;48.908;9.140;2023-12-04T18:46:21;15.37;;;10.33;;
22983;SDS011;11658;48.908;9.140;2023-12-04T18:48:56;15.70;;;11.23;;
22983;SDS011;11658;48.908;9.140;2023-12-04T18:51:22;15.20;;;11.30;;
22983;SDS011;11658;48.908;9.140;2023-12-04T18:53:56;14.07;;;10.47;;
22983;SDS011;11658;48.908;9.140;2023-12-04T18:56:27;16.97;;;12.07;;
22983;SDS011;11658;48.908;9.140;2023-12-04T18:58:56;13.27;;;10.30;;
22983;SDS011;11658;48.908;9.140;2023-12-04T19:01:23;15.80;;;10.97;;
22983;SDS011;11658;48.908;9.140;2023-12-04T19:03:51;17.97;;;11.77;;
22983;SDS011;11658;48.908;9.140;2023-12-04T19:06:17;17.70;;;12.33;;
22983;SDS011;11658;48.908;9.140;2023-12-04T19:08:49;14.50;;;10.57;;
22983;SDS011;11658;48.908;9.140;2023-12-04T19:11:15;12.47;;;9.23;;
22983;SDS011;11658;48.908;9.140;2023-12-04T19:13:41;13.60;;;9.93;;
22983;SDS011;11658;48.908;9.140;2023-12-04T19:16:07;14.70;;;10.43;;
22983;SDS011;11658;48.908;9.140;2023-12-04T19:18:33;13.07;;;9.57;;
22983;SDS011;11658;48.908;9.140;2023-12-04T19:20:59;14.13;;;9.80;;
22983;SDS011;11658;48.908;9.140;2023-12-04T19:23:24;14.37;;;10.03;;
22983;SDS011;11658;48.908;9.140;2023-12-04T19:25:50;14.03;;;9.67;;
22983;SDS011;11658;48.908;9.140;2023-12-04T19:28:16;13.83;;;10.13;;
22983;SDS011;11658;48.908;9.140;2023-12-04T19:30:42;13.80;;;10.30;;
22983;SDS011;11658;48.908;9.140;2023-12-04T19:33:07;13.17;;;9.20;;
22983;SDS011;11658;48.908;9.140;2023-12-04T19:35:33;12.23;;;8.97;;
22983;SDS011;11658;48.908;9.140;2023-12-04T19:38:00;13.20;;;9.53;;
22983;SDS011;11658;48.908;9.140;2023-12-04T19:40:29;14.63;;;10.40;;
22983;SDS011;11658;48.908;9.140;2023-12-04T19:42:54;15.97;;;10.77;;
22983;SDS011;11658;48.908;9.140;2023-12-04T19:45:20;13.03;;;9.30;;
22983;SDS011;11658;48.908;9.140;2023-12-04T19:47:46;13.03;;;8.57;;
22983;SDS011;11658;48.908;9.140;2023-12-04T19:50:11;11.90;;;9.47;;
22983;SDS011;11658;48.908;9.140;2023-12-04T19:52:40;11.33;;;8.10;;
22983;SDS011;11658;48.908;9.140;2023-12-04T19:55:06;11.00;;;7.90;;